createdAt,value
2022-08-30T00:02:02.165Z,100.00
2022-08-30T00:04:29.615Z,100.00
2022-08-30T00:06:57.142Z,100.00
2022-08-30T00:09:24.491Z,100.00
2022-08-30T00:11:52.091Z,100.00
2022-08-30T00:14:20.339Z,100.00
2022-08-30T00:16:47.712Z,100.00
2022-08-30T00:19:15.127Z,100.00
2022-08-30T00:21:42.547Z,100.00
2022-08-30T00:24:09.927Z,100.00
2022-08-30T00:26:37.329Z,100.00
2022-08-30T00:29:04.697Z,100.00
2022-08-30T00:31:32.345Z,100.00
2022-08-30T00:33:59.807Z,100.00
2022-08-30T00:36:27.663Z,100.00
2022-08-30T00:38:55.186Z,100.00
2022-08-30T00:41:22.798Z,100.00
2022-08-30T00:43:50.261Z,100.00
2022-08-30T00:46:21.145Z,100.00
2022-08-30T00:48:50.839Z,100.00
2022-08-30T00:51:21.434Z,100.00
2022-08-30T00:53:55.320Z,100.00
2022-08-30T00:56:25.276Z,100.00
2022-08-30T00:58:57.873Z,100.00
2022-08-30T01:01:27.603Z,100.00
2022-08-30T01:03:59.191Z,100.00
2022-08-30T01:06:32.673Z,100.00
2022-08-30T01:09:03.586Z,100.00
2022-08-30T01:11:35.457Z,100.00
2022-08-30T01:14:05.169Z,100.00
2022-08-30T01:16:36.061Z,100.00
2022-08-30T01:19:06.775Z,100.00
2022-08-30T01:21:57.719Z,100.00
2022-08-30T01:24:25.543Z,100.00
2022-08-30T01:26:52.924Z,100.00
2022-08-30T01:29:23.789Z,100.00
2022-08-30T01:31:51.477Z,100.00
2022-08-30T01:34:19.243Z,100.00
2022-08-30T01:36:47.396Z,100.00
2022-08-30T01:39:18.761Z,100.00
2022-08-30T01:41:46.344Z,100.00
2022-08-30T01:44:15.144Z,100.00
2022-08-30T01:46:47.902Z,100.00
2022-08-30T01:49:27.252Z,100.00
2022-08-30T01:52:00.286Z,100.00
2022-08-30T01:54:38.151Z,100.00
2022-08-30T01:57:12.070Z,100.00
2022-08-30T01:59:42.909Z,100.00
2022-08-30T02:02:10.908Z,100.00
2022-08-30T02:04:38.353Z,100.00
2022-08-30T02:07:05.943Z,100.00
2022-08-30T02:09:33.478Z,100.00
2022-08-30T02:12:01.253Z,100.00
2022-08-30T02:14:28.549Z,100.00
2022-08-30T02:16:56.384Z,100.00
2022-08-30T02:19:23.980Z,100.00
2022-08-30T02:21:51.373Z,100.00
2022-08-30T02:24:18.881Z,100.00
2022-08-30T02:26:46.568Z,100.00
2022-08-30T02:29:14.596Z,100.00
2022-08-30T02:31:41.993Z,100.00
2022-08-30T02:34:09.311Z,100.00
2022-08-30T02:36:36.954Z,100.00
2022-08-30T02:39:04.288Z,100.00
2022-08-30T02:41:31.641Z,100.00
2022-08-30T02:44:00.352Z,100.00
2022-08-30T02:46:33.320Z,100.00
2022-08-30T02:49:29.935Z,100.00
2022-08-30T02:51:50.930Z,100.00
2022-08-30T02:54:20.139Z,100.00
2022-08-30T02:56:49.656Z,100.00
2022-08-30T02:59:18.699Z,100.00
2022-08-30T03:01:46.214Z,100.00
2022-08-30T03:04:13.628Z,100.00
2022-08-30T03:06:41.014Z,100.00
2022-08-30T03:09:08.256Z,100.00
2022-08-30T03:11:35.692Z,100.00
2022-08-30T03:14:04.002Z,100.00
2022-08-30T03:16:31.604Z,100.00
2022-08-30T03:18:59.058Z,100.00
2022-08-30T03:21:26.569Z,100.00
2022-08-30T03:23:54.063Z,100.00
2022-08-30T03:26:21.582Z,100.00
2022-08-30T03:28:51.476Z,100.00
2022-08-30T03:31:19.201Z,100.00
2022-08-30T03:33:46.696Z,100.00
2022-08-30T03:36:14.211Z,100.00
2022-08-30T03:38:41.538Z,100.00
2022-08-30T03:41:09.235Z,100.00
2022-08-30T03:43:36.516Z,100.00
2022-08-30T03:46:05.155Z,100.00
2022-08-30T03:48:32.577Z,100.00
2022-08-30T03:50:59.949Z,100.00
2022-08-30T03:53:27.465Z,100.00
2022-08-30T03:55:55.371Z,100.00
2022-08-30T03:58:25.062Z,100.00
2022-08-30T04:00:52.511Z,100.00
2022-08-30T04:03:25.703Z,100.00
2022-08-30T04:05:55.524Z,100.00
2022-08-30T04:08:24.474Z,100.00
2022-08-30T04:10:53.525Z,100.00
2022-08-30T04:13:23.224Z,100.00
2022-08-30T04:15:51.198Z,100.00
2022-08-30T04:18:18.642Z,100.00
2022-08-30T04:20:47.361Z,100.00
2022-08-30T04:23:15.316Z,100.00
2022-08-30T04:25:44.058Z,100.00
2022-08-30T04:28:11.932Z,100.00
2022-08-30T04:30:43.284Z,100.00
2022-08-30T04:33:13.037Z,100.00
2022-08-30T04:35:49.938Z,100.00
2022-08-30T04:38:18.369Z,100.00
2022-08-30T04:40:50.549Z,100.00
2022-08-30T04:43:18.135Z,100.00
2022-08-30T04:45:46.818Z,100.00
2022-08-30T04:48:14.229Z,100.00
2022-08-30T04:50:43.576Z,100.00
2022-08-30T04:53:14.699Z,100.00
2022-08-30T04:55:43.926Z,100.00
2022-08-30T04:58:12.333Z,100.00
2022-08-30T05:00:42.127Z,100.00
2022-08-30T05:03:09.888Z,100.00
2022-08-30T05:05:40.320Z,100.00
2022-08-30T05:08:20.113Z,100.00
2022-08-30T05:10:52.805Z,100.00
2022-08-30T05:13:24.274Z,100.00
2022-08-30T05:16:05.929Z,100.00
2022-08-30T05:18:34.828Z,100.00
2022-08-30T05:21:15.746Z,100.00
2022-08-30T05:23:44.231Z,100.00
2022-08-30T05:26:25.858Z,100.00
2022-08-30T05:28:55.529Z,100.00
2022-08-30T05:31:33.659Z,100.00
2022-08-30T05:34:01.627Z,100.00
2022-08-30T05:36:33.535Z,100.00
2022-08-30T05:39:01.314Z,100.00
2022-08-30T05:41:29.212Z,100.00
2022-08-30T05:44:00.229Z,100.00
2022-08-30T05:49:07.824Z,100.00
2022-08-30T05:51:42.748Z,100.00
2022-08-30T05:54:14.965Z,100.00
2022-08-30T05:56:45.606Z,100.00
2022-08-30T05:59:15.200Z,100.00
2022-08-30T06:01:47.245Z,100.00
2022-08-30T06:04:15.527Z,100.00
2022-08-30T06:06:44.299Z,100.00
2022-08-30T06:09:14.075Z,100.00
2022-08-30T06:11:44.935Z,100.00
2022-08-30T06:14:13.797Z,100.00
2022-08-30T06:16:45.735Z,100.00
2022-08-30T06:19:15.449Z,100.00
2022-08-30T06:21:47.824Z,100.00
2022-08-30T06:24:15.550Z,100.00
2022-08-30T06:26:47.534Z,100.00
2022-08-30T06:29:19.846Z,100.00
2022-08-30T06:31:48.282Z,100.00
2022-08-30T06:34:19.351Z,100.00
2022-08-30T06:36:46.659Z,100.00
2022-08-30T06:39:14.489Z,100.00
2022-08-30T06:41:43.256Z,100.00
2022-08-30T06:44:37.370Z,100.00
2022-08-30T06:47:05.410Z,100.00
2022-08-30T06:49:32.964Z,100.00
2022-08-30T06:52:00.327Z,100.00
2022-08-30T06:54:27.736Z,100.00
2022-08-30T06:56:58.461Z,100.00
2022-08-30T06:59:27.361Z,100.00
2022-08-30T07:01:56.197Z,100.00
2022-08-30T07:04:24.404Z,100.00
2022-08-30T07:06:52.006Z,100.00
2022-08-30T07:09:19.654Z,100.00
2022-08-30T07:11:52.446Z,100.00
2022-08-30T07:14:21.491Z,100.00
2022-08-30T07:16:51.161Z,100.00
2022-08-30T07:19:20.753Z,100.00
2022-08-30T07:21:49.693Z,100.00
2022-08-30T07:24:25.540Z,100.00
2022-08-30T07:26:55.886Z,100.00
2022-08-30T07:29:23.605Z,100.00
2022-08-30T07:31:51.448Z,100.00
2022-08-30T07:34:20.457Z,100.00
2022-08-30T07:36:50.166Z,100.00
2022-08-30T07:39:18.247Z,100.00
2022-08-30T07:41:46.090Z,100.00
2022-08-30T07:44:13.552Z,100.00
2022-08-30T07:46:41.987Z,100.00
2022-08-30T07:49:11.841Z,100.00
2022-08-30T07:51:43.527Z,100.00
2022-08-30T07:54:11.191Z,100.00
2022-08-30T07:56:40.752Z,100.00
2022-08-30T07:59:08.480Z,100.00
2022-08-30T08:01:42.792Z,100.00
2022-08-30T08:04:22.178Z,100.00
2022-08-30T08:06:56.363Z,100.00
2022-08-30T08:09:23.845Z,100.00
2022-08-30T08:11:51.428Z,100.00
2022-08-30T08:14:24.330Z,100.00
2022-08-30T08:16:52.770Z,100.00
2022-08-30T08:19:20.928Z,100.00
2022-08-30T08:21:50.463Z,100.00
2022-08-30T08:24:28.497Z,100.00
2022-08-30T08:26:56.492Z,100.00
2022-08-30T08:29:24.887Z,100.00
2022-08-30T08:31:52.458Z,100.00
2022-08-30T08:34:24.804Z,100.00
2022-08-30T08:36:52.410Z,100.00
2022-08-30T08:39:20.026Z,100.00
2022-08-30T08:42:24.250Z,100.00
2022-08-30T08:45:13.902Z,100.00
2022-08-30T08:48:07.146Z,100.00
2022-08-30T08:50:34.580Z,100.00
2022-08-30T08:53:45.431Z,100.00
2022-08-30T08:56:18.682Z,100.00
2022-08-30T08:58:55.338Z,100.00
2022-08-30T09:01:29.709Z,100.00
2022-08-30T09:04:03.693Z,100.00
2022-08-30T09:06:59.716Z,100.00
2022-08-30T09:09:39.531Z,100.00
2022-08-30T09:12:12.147Z,100.00
2022-08-30T09:14:47.770Z,100.00
2022-08-30T09:17:18.953Z,100.00
2022-08-30T09:19:52.467Z,100.00
2022-08-30T09:22:46.583Z,100.00
2022-08-30T09:25:14.406Z,100.00
2022-08-30T09:27:49.563Z,100.00
2022-08-30T09:30:29.865Z,100.00
2022-08-30T09:33:06.137Z,100.00
2022-08-30T09:35:55.526Z,100.00
2022-08-30T09:38:36.212Z,100.00
2022-08-30T09:41:50.252Z,100.00
2022-08-30T09:44:28.060Z,100.00
2022-08-30T09:47:01.412Z,100.00
2022-08-30T09:49:43.647Z,100.00
2022-08-30T09:52:55.483Z,100.00
2022-08-30T09:56:00.228Z,100.00
2022-08-30T09:59:08.648Z,100.00
2022-08-30T10:01:50.593Z,100.00
2022-08-30T10:04:48.172Z,100.00
2022-08-30T10:07:55.597Z,100.00
2022-08-30T10:10:45.251Z,100.00
2022-08-30T10:13:56.705Z,100.00
2022-08-30T10:16:50.185Z,100.00
2022-08-30T10:19:49.528Z,100.00
2022-08-30T10:22:44.379Z,100.00
2022-08-30T10:26:19.472Z,100.00
2022-08-30T10:29:08.190Z,100.00
2022-08-30T10:31:52.133Z,100.00
2022-08-30T10:34:27.091Z,100.00
2022-08-30T10:37:09.471Z,100.00
2022-08-30T10:39:49.356Z,100.00
2022-08-30T10:42:53.465Z,100.00
2022-08-30T10:45:26.256Z,100.00
2022-08-30T10:48:31.295Z,100.00
2022-08-30T10:51:11.726Z,100.00
2022-08-30T10:53:58.381Z,100.00
2022-08-30T10:56:29.606Z,100.00
2022-08-30T10:59:07.677Z,100.00
2022-08-30T11:02:33.116Z,100.00
2022-08-30T11:05:24.387Z,100.00
2022-08-30T11:08:46.014Z,100.00
2022-08-30T11:11:40.894Z,100.00
2022-08-30T11:14:15.127Z,100.00
2022-08-30T11:16:50.195Z,100.00
2022-08-30T11:19:39.196Z,100.00
2022-08-30T11:22:39.127Z,100.00
2022-08-30T11:25:15.583Z,100.00
2022-08-30T11:27:58.994Z,100.00
2022-08-30T11:30:27.284Z,100.00
2022-08-30T11:33:15.544Z,100.00
2022-08-30T11:35:55.075Z,100.00
2022-08-30T11:38:25.612Z,100.00
2022-08-30T11:40:56.257Z,100.00
2022-08-30T11:43:40.229Z,100.00
2022-08-30T11:46:28.474Z,100.00
2022-08-30T11:49:35.831Z,100.00
2022-08-30T11:53:20.789Z,100.00
2022-08-30T11:56:30.954Z,100.00
2022-08-30T11:59:38.477Z,100.00
2022-08-30T12:02:09.235Z,100.00
2022-08-30T12:04:48.200Z,100.00
2022-08-30T12:08:00.940Z,100.00
2022-08-30T12:11:02.357Z,100.00
2022-08-30T12:13:56.223Z,100.00
2022-08-30T12:17:07.092Z,100.00
2022-08-30T12:19:49.580Z,100.00
2022-08-30T12:22:22.577Z,100.00
2022-08-30T12:24:53.833Z,100.00
2022-08-30T12:27:33.704Z,100.00
2022-08-30T12:30:10.079Z,100.00
2022-08-30T12:32:50.976Z,100.00
2022-08-30T12:35:26.341Z,100.00
2022-08-30T12:38:12.448Z,100.00
2022-08-30T12:40:58.150Z,100.00
2022-08-30T12:43:40.939Z,100.00
2022-08-30T12:46:15.949Z,100.00
2022-08-30T12:48:48.908Z,100.00
2022-08-30T12:51:41.127Z,100.00
2022-08-30T12:54:29.579Z,100.00
2022-08-30T12:57:18.994Z,100.00
2022-08-30T13:00:02.145Z,100.00
2022-08-30T13:02:52.152Z,100.00
2022-08-30T13:05:44.937Z,100.00
2022-08-30T13:08:20.218Z,100.00
2022-08-30T13:11:10.441Z,100.00
2022-08-30T13:13:52.964Z,100.00
2022-08-30T13:16:29.805Z,100.00
2022-08-30T13:19:41.497Z,100.00
2022-08-30T13:22:28.947Z,100.00
2022-08-30T13:25:01.428Z,100.00
2022-08-30T13:27:30.608Z,100.00
2022-08-30T13:30:13.267Z,100.00
2022-08-30T13:32:43.464Z,100.00
2022-08-30T13:35:13.000Z,100.00
2022-08-30T13:37:47.291Z,100.00
2022-08-30T13:40:19.737Z,100.00
2022-08-30T13:42:48.534Z,89.79
2022-08-30T13:48:10.688Z,80.06
2022-08-30T13:50:38.929Z,76.70
2022-08-30T13:53:09.097Z,84.93
2022-08-30T13:55:39.177Z,93.34
2022-08-30T13:58:09.674Z,100.00
2022-08-30T14:00:40.710Z,98.32
2022-08-30T14:03:08.283Z,96.58
2022-08-30T14:06:15.817Z,89.41
2022-08-30T14:08:49.801Z,79.11
2022-08-30T14:11:22.308Z,75.65
2022-08-30T14:16:46.430Z,66.25
2022-08-30T14:19:17.556Z,66.32
2022-08-30T14:21:49.006Z,66.21
2022-08-30T14:24:20.016Z,69.01
2022-08-30T14:26:55.796Z,67.05
2022-08-30T14:29:29.735Z,72.32
2022-08-30T14:32:00.410Z,65.13
2022-08-30T14:34:29.807Z,65.55
2022-08-30T14:36:59.768Z,67.04
2022-08-30T14:39:27.345Z,64.72
2022-08-30T14:41:56.535Z,64.49
2022-08-30T14:44:25.911Z,68.85
2022-08-30T14:46:54.146Z,62.30
2022-08-30T14:49:23.059Z,73.37
2022-08-30T14:51:53.455Z,65.81
2022-08-30T14:54:28.028Z,56.08
2022-08-30T14:56:55.965Z,58.00
2022-08-30T14:59:25.630Z,65.91
2022-08-30T15:01:53.731Z,72.44
2022-08-30T15:04:21.782Z,84.38
2022-08-30T15:06:52.741Z,87.06
2022-08-30T15:09:24.841Z,86.26
2022-08-30T15:11:59.782Z,82.97
2022-08-30T15:14:29.379Z,79.06
2022-08-30T15:16:59.248Z,78.24
2022-08-30T15:19:26.918Z,65.14
2022-08-30T15:21:54.847Z,63.68
2022-08-30T15:24:29.461Z,57.46
2022-08-30T15:26:59.565Z,62.61
2022-08-30T15:29:30.571Z,66.97
2022-08-30T15:32:05.438Z,68.34
2022-08-30T15:34:34.062Z,65.85
2022-08-30T15:37:05.130Z,63.93
2022-08-30T15:39:33.896Z,63.29
2022-08-30T15:42:02.023Z,57.36
2022-08-30T15:44:34.325Z,52.73
2022-08-30T15:47:03.797Z,61.77
2022-08-30T15:49:31.238Z,59.46
2022-08-30T15:52:03.939Z,57.91
2022-08-30T15:54:31.943Z,62.63
2022-08-30T15:56:59.906Z,59.35
2022-08-30T15:59:30.791Z,56.25
2022-08-30T16:01:58.843Z,59.58
2022-08-30T16:04:27.326Z,59.81
2022-08-30T16:06:55.131Z,59.61
2022-08-30T16:09:24.741Z,56.42
2022-08-30T16:11:52.565Z,53.67
2022-08-30T16:14:24.841Z,54.20
2022-08-30T16:16:52.321Z,54.31
2022-08-30T16:19:21.552Z,52.67
2022-08-30T16:21:49.384Z,54.86
2022-08-30T16:24:18.745Z,54.84
2022-08-30T16:26:57.642Z,62.34
2022-08-30T16:29:25.192Z,62.90
2022-08-30T16:31:53.235Z,70.70
2022-08-30T16:34:23.630Z,76.46
2022-08-30T16:36:57.767Z,81.13
2022-08-30T16:39:25.156Z,84.75
2022-08-30T16:41:52.703Z,85.48
2022-08-30T16:44:20.178Z,83.88
2022-08-30T16:46:53.244Z,81.32
2022-08-30T16:49:23.419Z,81.24
2022-08-30T16:51:56.276Z,83.45
2022-08-30T16:54:23.937Z,84.67
2022-08-30T16:56:52.040Z,84.12
2022-08-30T16:59:19.631Z,83.81
2022-08-30T17:01:50.213Z,88.70
2022-08-30T17:04:19.758Z,87.76
2022-08-30T17:07:02.764Z,89.34
2022-08-30T17:09:48.618Z,89.36
2022-08-30T17:12:16.212Z,91.52
2022-08-30T17:14:43.936Z,94.61
2022-08-30T17:17:11.266Z,99.53
2022-08-30T17:19:43.048Z,100.00
2022-08-30T17:22:13.732Z,100.00
2022-08-30T17:24:41.326Z,100.00
2022-08-30T17:27:08.846Z,100.00
2022-08-30T17:29:36.156Z,100.00
2022-08-30T17:32:06.257Z,100.00
2022-08-30T17:34:33.894Z,100.00
2022-08-30T17:37:04.080Z,100.00
2022-08-30T17:39:33.647Z,100.00
2022-08-30T17:42:01.129Z,100.00
2022-08-30T17:44:32.511Z,100.00
2022-08-30T17:47:01.493Z,100.00
2022-08-30T17:49:30.542Z,100.00
2022-08-30T17:52:02.744Z,100.00
2022-08-30T17:54:33.424Z,100.00
2022-08-30T17:57:10.921Z,100.00
2022-08-30T17:59:39.973Z,100.00
2022-08-30T18:02:11.193Z,100.00
2022-08-30T18:04:41.565Z,100.00
2022-08-30T18:07:13.861Z,100.00
2022-08-30T18:09:42.906Z,100.00
2022-08-30T18:12:12.300Z,100.00
2022-08-30T18:14:41.568Z,100.00
2022-08-30T18:17:09.266Z,100.00
2022-08-30T18:19:37.223Z,100.00
2022-08-30T18:22:16.349Z,100.00
2022-08-30T18:24:44.325Z,100.00
2022-08-30T18:27:15.570Z,100.00
2022-08-30T18:29:43.198Z,100.00
2022-08-30T18:32:11.125Z,100.00
2022-08-30T18:34:40.348Z,100.00
2022-08-30T18:37:14.913Z,100.00
2022-08-30T18:39:46.112Z,100.00
2022-08-30T18:42:14.945Z,100.00
2022-08-30T18:44:43.619Z,100.00
2022-08-30T18:47:11.606Z,100.00
2022-08-30T18:49:39.976Z,100.00
2022-08-30T18:52:10.558Z,100.00
2022-08-30T18:54:47.315Z,100.00
2022-08-30T18:57:19.564Z,100.00
2022-08-30T18:59:49.158Z,100.00
2022-08-30T19:02:21.005Z,100.00
2022-08-30T19:04:55.938Z,100.00
2022-08-30T19:07:28.999Z,100.00
2022-08-30T19:10:02.037Z,100.00
2022-08-30T19:12:31.603Z,100.00
2022-08-30T19:15:11.060Z,100.00
2022-08-30T19:17:45.942Z,100.00
2022-08-30T19:20:19.451Z,100.00
2022-08-30T19:23:08.643Z,100.00
2022-08-30T19:25:45.655Z,100.00
2022-08-30T19:28:25.263Z,100.00
2022-08-30T19:30:58.312Z,100.00
2022-08-30T19:33:32.561Z,100.00
2022-08-30T19:36:01.061Z,100.00
2022-08-30T19:38:33.861Z,100.00
2022-08-30T19:41:06.026Z,100.00
2022-08-30T19:43:48.650Z,100.00
2022-08-30T19:46:17.681Z,100.00
2022-08-30T19:48:48.993Z,100.00
2022-08-30T19:51:20.033Z,100.00
2022-08-30T19:53:58.117Z,100.00
2022-08-30T19:56:30.344Z,100.00
2022-08-30T19:58:59.315Z,100.00
2022-08-30T20:01:32.680Z,100.00
2022-08-30T20:04:07.154Z,100.00
2022-08-30T20:06:43.212Z,100.00
2022-08-30T20:09:14.397Z,100.00
2022-08-30T20:11:42.956Z,100.00
2022-08-30T20:14:16.604Z,100.00
2022-08-30T20:16:50.698Z,100.00
2022-08-30T20:19:20.431Z,100.00
2022-08-30T20:21:54.646Z,100.00
2022-08-30T20:24:32.690Z,100.00
2022-08-30T20:27:03.552Z,100.00
2022-08-30T20:29:33.131Z,100.00
2022-08-30T20:32:04.844Z,100.00
2022-08-30T20:34:33.831Z,100.00
2022-08-30T20:37:01.983Z,100.00
2022-08-30T20:39:30.815Z,100.00
2022-08-30T20:41:58.304Z,100.00
2022-08-30T20:44:26.749Z,100.00
2022-08-30T20:46:54.076Z,100.00
2022-08-30T20:49:21.651Z,100.00
2022-08-30T20:51:52.963Z,100.00
2022-08-30T20:54:22.636Z,100.00
2022-08-30T20:56:51.365Z,100.00
2022-08-30T20:59:18.916Z,100.00
2022-08-30T21:01:48.568Z,100.00
2022-08-30T21:04:18.739Z,100.00
2022-08-30T21:06:46.256Z,100.00
2022-08-30T21:09:15.063Z,100.00
2022-08-30T21:11:44.669Z,100.00
2022-08-30T21:14:12.991Z,100.00
2022-08-30T21:16:40.816Z,100.00
2022-08-30T21:19:08.293Z,100.00
2022-08-30T21:21:35.670Z,100.00
2022-08-30T21:24:10.215Z,100.00
2022-08-30T21:26:40.654Z,100.00
2022-08-30T21:29:09.857Z,100.00
2022-08-30T21:31:38.399Z,100.00
2022-08-30T21:34:06.143Z,100.00
2022-08-30T21:36:45.809Z,100.00
2022-08-30T21:39:26.785Z,100.00
2022-08-30T21:41:59.753Z,100.00
2022-08-30T21:44:27.640Z,100.00
2022-08-30T21:46:55.684Z,100.00
2022-08-30T21:49:24.700Z,100.00
2022-08-30T21:51:54.716Z,100.00
2022-08-30T21:54:24.100Z,100.00
2022-08-30T21:56:54.514Z,100.00
2022-08-30T21:59:22.303Z,100.00
2022-08-30T22:01:50.097Z,100.00
2022-08-30T22:04:19.431Z,100.00
2022-08-30T22:06:52.035Z,100.00
2022-08-30T22:09:24.630Z,100.00
2022-08-30T22:11:52.524Z,100.00
2022-08-30T22:14:22.346Z,100.00
2022-08-30T22:16:49.934Z,100.00
2022-08-30T22:19:22.953Z,100.00
2022-08-30T22:21:52.581Z,100.00
2022-08-30T22:24:32.108Z,100.00
2022-08-30T22:27:02.958Z,100.00
2022-08-30T22:29:30.579Z,100.00
2022-08-30T22:31:58.854Z,100.00
2022-08-30T22:34:27.240Z,100.00
2022-08-30T22:36:54.769Z,100.00
2022-08-30T22:39:22.056Z,100.00
2022-08-30T22:41:50.364Z,100.00
2022-08-30T22:44:19.288Z,100.00
2022-08-30T22:46:47.083Z,100.00
2022-08-30T22:49:14.722Z,100.00
2022-08-30T22:51:42.690Z,100.00
2022-08-30T22:54:10.889Z,100.00
2022-08-30T22:56:39.925Z,100.00
2022-08-30T22:59:07.592Z,100.00
2022-08-30T23:01:43.101Z,100.00
2022-08-30T23:04:12.040Z,100.00
2022-08-30T23:06:40.041Z,100.00
2022-08-30T23:09:09.705Z,100.00
2022-08-30T23:11:45.859Z,100.00
2022-08-30T23:14:13.692Z,100.00
2022-08-30T23:16:41.023Z,100.00
2022-08-30T23:19:08.465Z,100.00
2022-08-30T23:21:35.825Z,100.00
2022-08-30T23:24:22.315Z,100.00
2022-08-30T23:27:08.230Z,100.00
2022-08-30T23:29:54.376Z,100.00
2022-08-30T23:32:41.185Z,100.00
2022-08-30T23:35:31.765Z,100.00
2022-08-30T23:38:21.846Z,100.00
2022-08-30T23:41:08.062Z,100.00
2022-08-30T23:43:54.851Z,100.00
2022-08-30T23:46:41.632Z,100.00
2022-08-30T23:49:27.803Z,100.00
2022-08-30T23:52:13.991Z,100.00
2022-08-30T23:55:00.082Z,100.00
2022-08-30T23:57:46.914Z,100.00
